ADDS METAR Data INFO
IDs: Format: Raw Decoded Include TAF

Data at: 1902 UTC 21 Apr 2018

METAR for:LFJL (Metz/Lorraine Arpt, --, FR)
Text:LFJL 211830Z AUTO 00000KT CAVOK 22/11 Q1017 NOSIG
Temperature: 22.0°C ( 72°F)
Dewpoint: 11.0°C ( 52°F) [RH = 50%]
Pressure (altimeter):30.03 inches Hg (1017.0 mb)
Winds:calm
Visibility:6 or more sm (10+ km)
Ceiling:ceiling and visibility are OK
Clouds:unknown

TAF for:LFJL (Metz/Lorraine Arpt, --, FR) issued at 1700 UTC 21 Apr 2018
Text:TAF LFJL 211700Z 2118/2218 VRB02KT CAVOK
Forecast period:1800 to 2000 UTC 21 April 2018
Forecast type:FROM: standard forecast or significant change
Winds:variable direction winds at 2 MPH (2 knots; 1.0 m/s)
Visibility:6 or more sm (10+ km)
Clouds:missing
Weather:NSW (no significant weather)
Text:BECMG 2120/2122 09006KT
Forecast period:2000 UTC 21 April 2018 to 1000 UTC 22 April 2018
Forecast type:BECOMING: Conditions expected to become as follows by 2200 UTC 21 April 2018
Winds:from the E (90 degrees) at 7 MPH (6 knots; 3.1 m/s)
Visibility:6 or more sm (10+ km)
Clouds:missing
Weather:NSW (no significant weather)
Text:BECMG 2210/2212 23010KT
Forecast period:1000 to 1800 UTC 22 April 2018
Forecast type:BECOMING: Conditions expected to become as follows by 1200 UTC 22 April 2018
Winds:from the SW (230 degrees) at 12 MPH (10 knots; 5.1 m/s)
Visibility:6 or more sm (10+ km)
Clouds:missing
Weather:NSW (no significant weather)